createdAt,value
2018-11-21T00:00:00.300Z,94779.7
2018-11-21T00:01:02.198Z,94776.4
2018-11-21T00:02:04.367Z,94776.3
2018-11-21T00:03:06.008Z,94780.8
2018-11-21T00:04:08.439Z,94776.5
2018-11-21T00:05:10.870Z,94779.4
2018-11-21T00:06:13.004Z,94773.6
2018-11-21T00:07:15.427Z,94775.5
2018-11-21T00:08:17.878Z,94777.7
2018-11-21T00:09:20.306Z,94774.3
2018-11-21T00:10:22.729Z,94776
2018-11-21T00:11:24.629Z,94779.8
2018-11-21T00:12:26.810Z,94785.5
2018-11-21T00:13:29.239Z,94782.5
2018-11-21T00:14:31.669Z,94787.4
2018-11-21T00:15:33.829Z,94784.3
2018-11-21T00:16:36.266Z,94785.9
2018-11-21T00:17:38.162Z,94785.7
2018-11-21T00:18:40.319Z,94785.2
2018-11-21T00:19:42.748Z,94786.6
2018-11-21T00:20:45.195Z,94784
2018-11-21T00:21:47.067Z,94784.1
2018-11-21T00:22:49.502Z,94784.2
2018-11-21T00:23:51.661Z,94782.7
2018-11-21T00:24:54.086Z,94782
2018-11-21T00:25:56.238Z,94786
2018-11-21T00:26:58.405Z,94782.5
2018-11-21T00:28:00.040Z,94787.8
2018-11-21T00:29:02.456Z,94784.6
2018-11-21T00:30:04.318Z,94785
2018-11-21T00:31:06.201Z,94787.2
2018-11-21T00:32:08.352Z,94787.2
2018-11-21T00:33:10.788Z,94796.3
2018-11-21T00:34:13.219Z,94794.7
2018-11-21T00:35:15.091Z,94791.8
2018-11-21T00:36:16.988Z,94796.6
2018-11-21T00:37:19.152Z,94794.1
2018-11-21T00:38:21.038Z,94791.8
2018-11-21T00:39:23.208Z,94793.6
2018-11-21T00:40:25.633Z,94789.6
2018-11-21T00:41:28.066Z,94795.3
2018-11-21T00:42:30.220Z,94795.1
2018-11-21T00:43:32.088Z,94791.7
2018-11-21T00:44:34.243Z,94789.1
2018-11-21T00:45:36.106Z,94790.3
2018-11-21T00:46:38.523Z,94789.2
2018-11-21T00:47:40.964Z,94786.5
2018-11-21T00:48:42.835Z,94788.9
2018-11-21T00:49:44.716Z,94789.7
2018-11-21T00:50:46.838Z,94789
2018-11-21T00:51:48.948Z,94790.6
2018-11-21T00:52:51.097Z,94795.9
2018-11-21T00:53:53.246Z,94790.5
2018-11-21T00:54:55.408Z,94791.3
2018-11-21T00:55:57.840Z,94798.1
2018-11-21T00:57:01.268Z,94794.8
2018-11-21T00:58:03.148Z,94789.9
2018-11-21T00:59:05.035Z,94793.6
2018-11-21T01:00:07.468Z,94791.9
2018-11-21T01:01:09.059Z,94795.5
2018-11-21T01:02:11.208Z,94795.6
2018-11-21T01:03:13.366Z,94796.5
2018-11-21T01:04:15.522Z,94797.4
2018-11-21T01:05:17.656Z,94802.1
2018-11-21T01:06:19.520Z,94796.4
2018-11-21T01:07:21.668Z,94799.6
2018-11-21T01:08:24.101Z,94795
2018-11-21T01:09:26.538Z,94794.1
2018-11-21T01:10:28.668Z,94800.7
2018-11-21T01:11:31.117Z,94792.8
2018-11-21T01:12:33.544Z,94795.6
2018-11-21T01:13:35.978Z,94794.1
2018-11-21T01:14:37.883Z,94799.9
2018-11-21T01:15:40.019Z,94796
2018-11-21T01:16:41.910Z,94796.3
2018-11-21T01:17:43.802Z,94801.5
2018-11-21T01:18:45.931Z,94801.4
2018-11-21T01:19:48.087Z,94796.5
2018-11-21T01:20:50.530Z,94793.9
2018-11-21T01:21:52.694Z,94794.5
2018-11-21T01:22:54.583Z,94790
2018-11-21T01:23:57.016Z,94791.2
2018-11-21T01:24:58.900Z,94791.2
2018-11-21T01:26:00.758Z,94796.3
2018-11-21T01:27:02.906Z,94795.1
2018-11-21T01:28:04.760Z,94795.4
2018-11-21T01:29:07.194Z,94795.5
2018-11-21T01:30:09.629Z,94795.5
2018-11-21T01:31:12.044Z,94795.9
2018-11-21T01:32:14.188Z,94793.5
2018-11-21T01:33:16.928Z,94797.2
2018-11-21T01:34:19.354Z,94798.1
2018-11-21T01:35:21.777Z,94795
2018-11-21T01:36:23.916Z,94796.7
2018-11-21T01:37:26.060Z,94795.4
2018-11-21T01:38:27.917Z,94796.6
2018-11-21T01:39:30.076Z,94795.8
2018-11-21T01:40:31.948Z,94797.3
2018-11-21T01:41:33.808Z,94790.7
2018-11-21T01:42:35.943Z,94795.3
2018-11-21T01:43:38.089Z,94792.2
2018-11-21T01:44:40.246Z,94791
2018-11-21T01:45:42.668Z,94794.4
2018-11-21T01:46:45.098Z,94790.2
2018-11-21T01:47:47.534Z,94788.8
2018-11-21T01:48:49.718Z,94792.2
2018-11-21T01:49:51.897Z,94792.1
2018-11-21T01:50:54.319Z,94792.2
2018-11-21T01:51:56.516Z,94795.4
2018-11-21T01:52:58.665Z,94794.5
2018-11-21T01:54:00.816Z,94794.5
2018-11-21T01:55:02.698Z,94788.7
2018-11-21T01:56:05.141Z,94789.8
2018-11-21T01:57:07.550Z,94788
2018-11-21T01:58:09.428Z,94787.7
2018-11-21T01:59:11.858Z,94790.8
2018-11-21T02:00:13.998Z,94787.5
2018-11-21T02:01:15.893Z,94788.3
2018-11-21T02:02:18.022Z,94790.6
2018-11-21T02:03:20.164Z,94790.3
2018-11-21T02:04:22.026Z,94789.6
2018-11-21T02:05:23.908Z,94793
2018-11-21T02:06:26.058Z,94792.4
2018-11-21T02:07:28.230Z,94788.9
2018-11-21T02:08:30.658Z,94789
2018-11-21T02:09:33.085Z,94786.9
2018-11-21T02:10:34.960Z,94783.5
2018-11-21T02:11:36.555Z,94783.9
2018-11-21T02:12:38.742Z,94783.9
2018-11-21T02:13:40.913Z,94780.1
2018-11-21T02:14:43.073Z,94780.2
2018-11-21T02:15:44.936Z,94782.9
2018-11-21T02:16:47.364Z,94788.8
2018-11-21T02:17:49.797Z,94785
2018-11-21T02:18:51.946Z,94786.7
2018-11-21T02:19:54.375Z,94788.2
2018-11-21T02:20:56.799Z,94792.7
2018-11-21T02:21:59.226Z,94793.3
2018-11-21T02:23:01.677Z,94794.3
2018-11-21T02:24:03.826Z,94792.5
2018-11-21T02:25:05.962Z,94796.3
2018-11-21T02:26:08.425Z,94794.2
2018-11-21T02:27:10.553Z,94793.3
2018-11-21T02:28:12.416Z,94793.5
2018-11-21T02:29:14.550Z,94790.5
2018-11-21T02:30:16.975Z,94788.8
2018-11-21T02:31:19.407Z,94791.8
2018-11-21T02:32:21.557Z,94791.9
2018-11-21T02:33:23.987Z,94795
2018-11-21T02:34:26.426Z,94794.8
2018-11-21T02:35:28.885Z,94795.8
2018-11-21T02:36:31.335Z,94798.4
2018-11-21T02:37:33.767Z,94797
2018-11-21T02:38:35.906Z,94792.5
2018-11-21T02:39:37.759Z,94797.4
2018-11-21T02:40:39.639Z,94795.8
2018-11-21T02:41:41.232Z,94797
2018-11-21T02:42:43.664Z,94796.1
2018-11-21T02:43:45.538Z,94792.3
2018-11-21T02:44:47.677Z,94793.8
2018-11-21T02:45:50.098Z,94793.3
2018-11-21T02:46:52.258Z,94793.1
2018-11-21T02:47:54.407Z,94798.5
2018-11-21T02:48:56.028Z,94799
2018-11-21T02:49:57.908Z,94803.4
2018-11-21T02:50:59.497Z,94803
2018-11-21T02:52:01.110Z,94807.2
2018-11-21T02:53:02.708Z,94812.4
2018-11-21T02:54:05.173Z,94813.9
2018-11-21T02:55:07.577Z,94819.9
2018-11-21T02:56:10.016Z,94824.3
2018-11-21T02:57:12.453Z,94823.3
2018-11-21T02:58:14.888Z,94823.3
2018-11-21T02:59:17.335Z,94819.9
2018-11-21T03:00:19.503Z,94822.1
2018-11-21T03:01:21.081Z,94825.9
2018-11-21T03:02:23.503Z,94827.9
2018-11-21T03:03:24.817Z,94825.9
2018-11-21T03:04:27.257Z,94827.5
2018-11-21T03:05:29.426Z,94830.5
2018-11-21T03:06:31.586Z,94837.3
2018-11-21T03:07:33.476Z,94834.3
2018-11-21T03:08:35.622Z,94836.8
2018-11-21T03:09:37.217Z,94838.6
2018-11-21T03:10:39.378Z,94837.6
2018-11-21T03:11:41.802Z,94842
2018-11-21T03:12:43.675Z,94836.2
2018-11-21T03:13:45.555Z,94843.9
2018-11-21T03:14:47.980Z,94837.9
2018-11-21T03:15:50.408Z,94840.8
2018-11-21T03:16:52.268Z,94847
2018-11-21T03:17:54.445Z,94845.7
2018-11-21T03:18:56.877Z,94848.8
2018-11-21T03:19:58.775Z,94847.6
2018-11-21T03:21:01.227Z,94849
2018-11-21T03:22:03.367Z,94846.6
2018-11-21T03:23:05.522Z,94848.3
2018-11-21T03:24:07.656Z,94850.4
2018-11-21T03:25:09.787Z,94853
2018-11-21T03:26:11.921Z,94852.4
2018-11-21T03:27:14.062Z,94856.1
2018-11-21T03:28:15.947Z,94853.5
2018-11-21T03:29:18.106Z,94851.4
2018-11-21T03:30:20.241Z,94851.9
2018-11-21T03:31:22.451Z,94852
2018-11-21T03:32:24.884Z,94856.2
2018-11-21T03:33:27.315Z,94855.9
2018-11-21T03:34:29.476Z,94855.5
2018-11-21T03:35:31.891Z,94859.2
2018-11-21T03:36:34.045Z,94867.7
2018-11-21T03:37:35.907Z,94864.3
2018-11-21T03:38:38.350Z,94859
2018-11-21T03:39:40.506Z,94860.3
2018-11-21T03:40:42.404Z,94865.8
2018-11-21T03:41:44.547Z,94863.3
2018-11-21T03:42:46.973Z,94860.3
2018-11-21T03:43:49.118Z,94858.7
2018-11-21T03:44:51.557Z,94859.3
2018-11-21T03:45:53.438Z,94862.8
2018-11-21T03:46:55.861Z,94860.7
2018-11-21T03:47:57.991Z,94856.4
2018-11-21T03:49:00.416Z,94861.6
2018-11-21T03:50:02.574Z,94856.7
2018-11-21T03:51:04.707Z,94859
2018-11-21T03:52:07.168Z,94861.8
2018-11-21T03:53:09.030Z,94863.3
2018-11-21T03:54:11.185Z,94857
2018-11-21T03:55:13.335Z,94859.6
2018-11-21T03:56:15.756Z,94861.5
2018-11-21T03:57:18.190Z,94855.5
2018-11-21T03:58:20.618Z,94861
2018-11-21T03:59:22.786Z,94859.5
2018-11-21T04:00:25.217Z,94855.6
2018-11-21T04:01:27.642Z,94855
2018-11-21T04:02:29.527Z,94859
2018-11-21T04:03:31.411Z,94859.3
2018-11-21T04:04:33.257Z,94862.2
2018-11-21T04:05:34.867Z,94861.3
2018-11-21T04:06:37.014Z,94866.5
2018-11-21T04:07:38.662Z,94865.7
2018-11-21T04:09:45.807Z,94870.9
2018-11-21T04:10:47.686Z,94867.4
2018-11-21T04:11:49.830Z,94869.3
2018-11-21T04:12:52.257Z,94873.7
2018-11-21T04:13:54.398Z,94872.4
2018-11-21T04:14:56.568Z,94873.2
2018-11-21T04:15:58.727Z,94877.6
2018-11-21T04:17:00.880Z,94875.9
2018-11-21T04:18:02.757Z,94876.7
2018-11-21T04:19:04.630Z,94875.4
2018-11-21T04:20:07.058Z,94875.6
2018-11-21T04:21:09.498Z,94872.6
2018-11-21T04:22:11.929Z,94876.2
2018-11-21T04:23:14.047Z,94879
2018-11-21T04:24:16.183Z,94880.4
2018-11-21T04:25:18.346Z,94882.2
2018-11-21T04:26:20.492Z,94878.8
2018-11-21T04:27:22.916Z,94880.7
2018-11-21T04:28:24.796Z,94884.4
2018-11-21T04:29:26.948Z,94884.8
2018-11-21T04:30:29.374Z,94881.2
2018-11-21T04:31:31.811Z,94883.8
2018-11-21T04:32:33.967Z,94884.2
2018-11-21T04:33:35.577Z,94880.1
2018-11-21T04:34:37.458Z,94882.6
2018-11-21T04:35:39.637Z,94881.6
2018-11-21T04:36:41.788Z,94879.6
2018-11-21T04:37:45.014Z,94881.1
2018-11-21T04:38:47.506Z,94878.9
2018-11-21T04:39:49.390Z,94876.3
2018-11-21T04:40:51.839Z,94882.9
2018-11-21T04:41:54.018Z,94881.4
2018-11-21T04:42:56.449Z,94879.1
2018-11-21T04:43:58.372Z,94881.5
2018-11-21T04:45:00.550Z,94885.6
2018-11-21T04:46:02.993Z,94883.7
2018-11-21T04:47:05.157Z,94882.5
2018-11-21T04:48:07.326Z,94887.1
2018-11-21T04:49:09.761Z,94892.4
2018-11-21T04:50:12.192Z,94892.5
2018-11-21T04:51:14.356Z,94892.3
2018-11-21T04:52:16.530Z,94890.4
2018-11-21T04:53:18.716Z,94893.1
2018-11-21T04:54:20.618Z,94888.3
2018-11-21T04:55:23.078Z,94893.8
2018-11-21T04:56:25.302Z,94897.6
2018-11-21T04:57:27.767Z,94897.4
2018-11-21T04:58:30.213Z,94893.1
2018-11-21T04:59:32.109Z,94892.6
2018-11-21T05:00:34.009Z,94899.3
2018-11-21T05:01:36.212Z,94902.2
2018-11-21T05:02:37.887Z,94899.8
2018-11-21T05:03:40.076Z,94902
2018-11-21T05:04:42.510Z,94902.3
2018-11-21T05:05:44.936Z,94905.8
2018-11-21T05:06:47.358Z,94903.6
2018-11-21T05:07:49.796Z,94908.3
2018-11-21T05:08:51.943Z,94912.5
2018-11-21T05:09:54.116Z,94913.9
2018-11-21T05:10:56.548Z,94913.4
2018-11-21T05:11:58.122Z,94917.4
2018-11-21T05:13:00.278Z,94921.7
2018-11-21T05:14:02.146Z,94922
2018-11-21T05:15:04.601Z,94920.3
2018-11-21T05:16:07.028Z,94921.1
2018-11-21T05:17:08.618Z,94924
2018-11-21T05:18:11.052Z,94922.7
2018-11-21T05:19:13.218Z,94924.8
2018-11-21T05:20:15.092Z,94925.2
2018-11-21T05:21:17.517Z,94926.9
2018-11-21T05:22:19.410Z,94935.8
2018-11-21T05:23:21.286Z,94932
2018-11-21T05:24:23.178Z,94935.4
2018-11-21T05:25:25.046Z,94936.7
2018-11-21T05:26:27.486Z,94930.3
2018-11-21T05:27:29.647Z,94935.4
2018-11-21T05:28:31.532Z,94937.8
2018-11-21T05:29:33.692Z,94937.2
2018-11-21T05:30:35.832Z,94932.9
2018-11-21T05:31:37.985Z,94934.9
2018-11-21T05:32:39.868Z,94938.1
2018-11-21T05:33:41.488Z,94938.4
2018-11-21T05:34:43.648Z,94936.9
2018-11-21T05:35:45.810Z,94941
2018-11-21T05:36:48.234Z,94941.2
2018-11-21T05:37:49.826Z,94947.1
2018-11-21T05:38:51.999Z,94952.6
2018-11-21T05:39:53.314Z,94952.9
2018-11-21T05:40:55.178Z,94957
2018-11-21T05:41:57.605Z,94961.1
2018-11-21T05:43:00.030Z,94962.6
2018-11-21T05:44:02.177Z,94964.2
2018-11-21T05:45:04.339Z,94968.9
2018-11-21T05:46:06.759Z,94967.9
2018-11-21T05:47:09.187Z,94965.8
2018-11-21T05:48:11.078Z,94969.2
2018-11-21T05:49:13.497Z,94966.9
2018-11-21T05:50:15.657Z,94971.8
2018-11-21T05:51:17.822Z,94964.4
2018-11-21T05:52:20.248Z,94963.9
2018-11-21T05:53:22.139Z,94965
2018-11-21T05:54:24.015Z,94967.7
2018-11-21T05:55:25.618Z,94971
2018-11-21T05:56:27.494Z,94973.9
2018-11-21T05:57:29.928Z,94973.8
2018-11-21T05:58:32.160Z,94974.1
2018-11-21T05:59:34.114Z,94975.7
2018-11-21T06:00:36.010Z,94979.9
2018-11-21T06:01:38.442Z,94977.2
2018-11-21T06:02:40.318Z,94975.9
2018-11-21T06:03:42.746Z,94983.9
2018-11-21T06:04:44.900Z,94982.2
2018-11-21T06:05:47.052Z,94987.2
2018-11-21T06:06:49.468Z,94985.2
2018-11-21T06:07:51.904Z,94988.9
2018-11-21T06:08:54.339Z,94988.7
2018-11-21T06:09:56.761Z,94988.1
2018-11-21T06:10:58.909Z,94985.7
2018-11-21T06:13:06.323Z,94985.2
2018-11-21T06:14:08.764Z,94983.8
2018-11-21T06:15:10.921Z,94984.8
2018-11-21T06:16:12.778Z,94984.2
2018-11-21T06:17:14.943Z,94983
2018-11-21T06:18:17.096Z,94984.1
2018-11-21T06:19:19.258Z,94987.5
2018-11-21T06:20:21.394Z,94980.6
2018-11-21T06:21:23.559Z,94988.5
2018-11-21T06:22:26.076Z,94986.8
2018-11-21T06:23:28.258Z,94984.6
2018-11-21T06:24:30.678Z,94987.1
2018-11-21T06:25:32.835Z,94985.7
2018-11-21T06:26:34.745Z,94983.4
2018-11-21T06:27:36.898Z,94981.5
2018-11-21T06:28:39.032Z,94984.2
2018-11-21T06:29:41.200Z,94984.9
2018-11-21T06:30:42.820Z,94985.3
2018-11-21T06:31:45.249Z,94989.9
2018-11-21T06:32:47.689Z,94982.9
2018-11-21T06:33:49.572Z,94989.5
2018-11-21T06:34:52.011Z,94988.5
2018-11-21T06:35:54.438Z,94989
2018-11-21T06:36:56.873Z,94990.6
2018-11-21T06:37:58.998Z,94991.6
2018-11-21T06:39:01.433Z,94988
2018-11-21T06:40:03.867Z,94996.5
2018-11-21T06:41:06.294Z,94995.1
2018-11-21T06:42:08.469Z,94996.3
2018-11-21T06:43:10.902Z,94994.3
2018-11-21T06:44:13.345Z,94996.5
2018-11-21T06:45:15.784Z,94990.6
2018-11-21T06:46:17.678Z,94993.8
2018-11-21T06:47:20.106Z,94991.4
2018-11-21T06:48:22.263Z,94991.5
2018-11-21T06:49:24.414Z,94993
2018-11-21T06:50:26.838Z,94990.3
2018-11-21T06:52:35.202Z,95000.5
2018-11-21T06:53:37.639Z,94999.9
2018-11-21T06:54:40.069Z,95004.1
2018-11-21T06:55:42.490Z,95001.7
2018-11-21T06:56:46.038Z,95008.6
2018-11-21T06:57:48.448Z,95007.3
2018-11-21T06:59:55.849Z,95006.9
2018-11-21T07:00:57.739Z,95008.2
2018-11-21T07:02:00.193Z,95004.2
2018-11-21T07:03:02.639Z,95014.7
2018-11-21T07:04:05.080Z,95012.6
2018-11-21T07:05:07.514Z,95015.8
2018-11-21T07:06:09.682Z,95015
2018-11-21T07:07:12.104Z,95022.8
2018-11-21T07:08:14.532Z,95020.4
2018-11-21T07:09:16.949Z,95027.6
2018-11-21T07:10:19.383Z,95023.9
2018-11-21T07:11:21.821Z,95028.5
2018-11-21T07:12:23.945Z,95026.5
2018-11-21T07:13:26.370Z,95023.8
2018-11-21T07:14:28.521Z,95025.9
2018-11-21T07:15:30.950Z,95026.1
2018-11-21T07:16:33.382Z,95026.4
2018-11-21T07:17:35.811Z,95025.9
2018-11-21T07:18:38.266Z,95020.3
2018-11-21T07:19:40.443Z,95025.3
2018-11-21T07:20:42.319Z,95025.8
2018-11-21T07:21:44.449Z,95030.5
2018-11-21T07:22:46.871Z,95032.2
2018-11-21T07:23:49.293Z,95034.9
2018-11-21T07:24:51.717Z,95038.1
2018-11-21T07:25:54.158Z,95040.6
2018-11-21T07:26:56.589Z,95038.6
2018-11-21T07:27:59.007Z,95035.4
2018-11-21T07:29:01.149Z,95035.1
2018-11-21T07:30:03.592Z,95035.3
2018-11-21T07:31:06.025Z,95037
2018-11-21T07:32:08.200Z,95039.6
2018-11-21T07:33:10.375Z,95039.3
2018-11-21T07:34:12.811Z,95044.1
2018-11-21T07:36:20.225Z,95044.3
2018-11-21T07:37:22.649Z,95049.3
2018-11-21T07:38:25.082Z,95050.3
2018-11-21T07:39:27.529Z,95051.7
2018-11-21T07:40:29.961Z,95049.6
2018-11-21T07:41:32.387Z,95053.6
2018-11-21T07:42:34.811Z,95051.5
2018-11-21T07:43:37.244Z,95051.2
2018-11-21T07:44:39.680Z,95049.8
2018-11-21T07:45:42.119Z,95052
2018-11-21T07:46:44.549Z,95050.5
2018-11-21T07:47:46.689Z,95049.5
2018-11-21T07:48:48.570Z,95052.4
2018-11-21T07:49:50.991Z,95049.9
2018-11-21T07:50:53.420Z,95050.6
2018-11-21T07:51:55.845Z,95051.6
2018-11-21T07:52:58.299Z,95050.7
2018-11-21T07:54:00.722Z,95050.3
2018-11-21T07:55:03.139Z,95052.1
2018-11-21T07:56:05.583Z,95051.8
2018-11-21T07:57:07.709Z,95051.1
2018-11-21T07:58:10.135Z,95053.7
2018-11-21T07:59:12.569Z,95049.1
2018-11-21T08:00:14.989Z,95056.8
2018-11-21T08:01:17.458Z,95056.2
2018-11-21T08:02:19.897Z,95058.7
2018-11-21T08:03:22.325Z,95063.4
2018-11-21T08:04:24.751Z,95059.3
2018-11-21T08:05:27.207Z,95063.3
2018-11-21T08:06:29.639Z,95066.9
2018-11-21T08:07:32.061Z,95066.1
2018-11-21T08:08:34.211Z,95066.3
2018-11-21T08:09:36.633Z,95072.8
2018-11-21T08:10:39.054Z,95070.3
2018-11-21T08:11:41.196Z,95074.5
2018-11-21T08:12:43.639Z,95071.9
2018-11-21T08:13:45.797Z,95069
2018-11-21T08:14:48.221Z,95066.6
2018-11-21T08:15:50.645Z,95068.8
2018-11-21T08:16:53.286Z,95066
2018-11-21T08:17:55.730Z,95065.8
2018-11-21T08:18:57.883Z,95065.8
2018-11-21T08:20:00.319Z,95066.1
2018-11-21T08:21:02.759Z,95068.2
2018-11-21T08:22:05.200Z,95071
2018-11-21T08:23:07.629Z,95068.8
2018-11-21T08:24:10.064Z,95072.4
2018-11-21T08:25:12.503Z,95071.5
2018-11-21T08:26:14.653Z,95074.2
2018-11-21T08:27:17.089Z,95071.2
2018-11-21T08:28:19.505Z,95078.9
2018-11-21T08:29:21.947Z,95074.9
2018-11-21T08:30:24.381Z,95077.3
2018-11-21T08:31:26.795Z,95078
2018-11-21T08:32:29.227Z,95076.3
2018-11-21T08:34:36.628Z,95081.8
2018-11-21T08:35:39.057Z,95084
2018-11-21T08:36:41.212Z,95080.3
2018-11-21T08:37:43.358Z,95085.6
2018-11-21T08:38:45.829Z,95087.9
2018-11-21T08:39:48.262Z,95089.8
2018-11-21T08:40:50.695Z,95087.6
2018-11-21T08:41:53.125Z,95090.1
2018-11-21T08:42:55.270Z,95093.3
2018-11-21T08:44:59.958Z,95096.6
2018-11-21T08:46:02.400Z,95089.3
2018-11-21T08:47:04.828Z,95093.8
2018-11-21T08:48:07.256Z,95088
2018-11-21T08:49:09.412Z,95090
2018-11-21T08:50:11.840Z,95092.3
2018-11-21T08:51:13.710Z,95087.7
2018-11-21T08:52:16.142Z,95088
2018-11-21T08:53:18.569Z,95088.2
2018-11-21T08:54:20.999Z,95086.2
2018-11-21T08:55:23.419Z,95086.1
2018-11-21T08:56:25.846Z,95081
2018-11-21T08:57:28.268Z,95082.4
2018-11-21T08:58:30.698Z,95086.1
2018-11-21T08:59:33.144Z,95083.3
2018-11-21T09:00:35.570Z,95078.4
2018-11-21T09:01:37.997Z,95082.4
2018-11-21T09:02:40.437Z,95083.5
2018-11-21T09:03:42.860Z,95080.9
2018-11-21T09:04:45.306Z,95089.1
2018-11-21T09:05:47.726Z,95093.2
2018-11-21T09:06:50.158Z,95091
2018-11-21T09:07:52.599Z,95096.4
2018-11-21T09:08:55.041Z,95102.4
2018-11-21T09:09:57.468Z,95107.9
2018-11-21T09:10:59.896Z,95106.9
2018-11-21T09:12:02.315Z,95112.2
2018-11-21T09:13:04.200Z,95115.2
2018-11-21T09:14:06.636Z,95114.2
2018-11-21T09:15:09.069Z,95113.2
2018-11-21T09:16:11.515Z,95113.4
2018-11-21T09:17:13.937Z,95113.2
2018-11-21T09:18:16.370Z,95110.3
2018-11-21T09:19:18.797Z,95107.2
2018-11-21T09:20:20.969Z,95100.4
2018-11-21T09:21:23.110Z,95100.1
2018-11-21T09:22:25.325Z,95096
2018-11-21T09:23:27.803Z,95094.8
2018-11-21T09:24:30.268Z,95093.7
2018-11-21T09:25:32.425Z,95093.2
2018-11-21T09:26:34.557Z,95094.8
2018-11-21T09:27:36.987Z,95098.1
2018-11-21T09:28:39.409Z,95099.1
2018-11-21T09:29:41.831Z,95102.3
2018-11-21T09:30:44.265Z,95106.9
2018-11-21T09:31:46.692Z,95106.5
2018-11-21T09:32:49.128Z,95108.4
2018-11-21T09:33:51.558Z,95107.1
2018-11-21T09:35:08.649Z,95110.9
2018-11-21T09:36:10.790Z,95117.4
2018-11-21T09:37:13.232Z,95114.7
2018-11-21T09:38:15.655Z,95115.3
2018-11-21T09:39:18.082Z,95113
2018-11-21T09:40:20.498Z,95110.9
2018-11-21T09:41:22.935Z,95110.9
2018-11-21T09:42:25.362Z,95108.7
2018-11-21T09:43:27.686Z,95115.3
2018-11-21T09:44:29.840Z,95111.9
2018-11-21T09:45:32.000Z,95112.3
2018-11-21T09:46:34.146Z,95114.7
2018-11-21T09:47:36.315Z,95111.8
2018-11-21T09:48:38.729Z,95108.3
2018-11-21T09:49:40.899Z,95109.2
2018-11-21T09:50:43.326Z,95110.8
2018-11-21T09:51:45.749Z,95111.6
2018-11-21T09:53:52.877Z,95114.8
2018-11-21T09:54:55.302Z,95118.2
2018-11-21T09:55:57.758Z,95109.8
2018-11-21T09:57:00.190Z,95112.7
2018-11-21T09:58:02.623Z,95112.3
2018-11-21T09:59:05.055Z,95114.3
2018-11-21T10:00:07.488Z,95110
2018-11-21T10:01:09.922Z,95107.9
2018-11-21T10:02:12.073Z,95108.7
2018-11-21T10:03:14.211Z,95113.3
2018-11-21T10:04:16.646Z,95113.3
2018-11-21T10:05:19.083Z,95107.3
2018-11-21T10:06:21.244Z,95109.2
2018-11-21T10:07:23.666Z,95099.8
2018-11-21T10:08:25.833Z,95102.5
2018-11-21T10:09:28.267Z,95101.5
2018-11-21T10:10:30.719Z,95102.9
2018-11-21T10:11:33.148Z,95099.1
2018-11-21T10:12:35.308Z,95098.9
2018-11-21T10:13:37.730Z,95102.8
2018-11-21T10:14:39.891Z,95103
2018-11-21T10:15:42.335Z,95102
2018-11-21T10:16:44.758Z,95098.3
2018-11-21T10:17:47.181Z,95108.2
2018-11-21T10:18:49.607Z,95105.3
2018-11-21T10:19:52.028Z,95107.4
2018-11-21T10:20:54.454Z,95109.2
2018-11-21T10:21:56.887Z,95105.8
2018-11-21T10:22:59.306Z,95110.6
2018-11-21T10:24:01.724Z,95109.3
2018-11-21T10:25:04.194Z,95111.7
2018-11-21T10:26:06.647Z,95112.4
2018-11-21T10:27:09.071Z,95114.5
2018-11-21T10:28:11.497Z,95114.4
2018-11-21T10:29:13.924Z,95113.4
2018-11-21T10:30:16.358Z,95116.8
2018-11-21T10:31:18.802Z,95112.8
2018-11-21T10:32:21.227Z,95105.8
2018-11-21T10:33:23.653Z,95113.6
2018-11-21T10:34:26.081Z,95107.2
2018-11-21T10:35:28.519Z,95112.6
2018-11-21T10:36:30.948Z,95108.7
2018-11-21T10:37:33.108Z,95109.1
2018-11-21T10:38:35.567Z,95105.8
2018-11-21T10:39:37.986Z,95102.9
2018-11-21T10:40:40.129Z,95109.3
2018-11-21T10:41:42.589Z,95109.7
2018-11-21T10:42:45.058Z,95105.7
2018-11-21T10:43:47.486Z,95106.2
2018-11-21T10:44:49.616Z,95110.2
2018-11-21T10:45:51.768Z,95111.4
2018-11-21T10:46:54.190Z,95110
2018-11-21T10:47:56.629Z,95105.3
2018-11-21T10:48:59.056Z,95108.5
2018-11-21T10:50:01.217Z,95102.9
2018-11-21T10:51:03.655Z,95102.4
2018-11-21T10:52:05.810Z,95104.4
2018-11-21T10:53:08.238Z,95100.2
2018-11-21T10:54:10.679Z,95099.4
2018-11-21T10:55:12.842Z,95099.3
2018-11-21T10:56:15.274Z,95096.8
2018-11-21T10:57:17.715Z,95097.3
2018-11-21T10:58:20.129Z,95095.2
2018-11-21T10:59:22.555Z,95098.3
2018-11-21T11:00:24.724Z,95097.9
2018-11-21T11:01:27.159Z,95100.2
2018-11-21T11:02:29.301Z,95104.9
2018-11-21T11:03:31.734Z,95105.9
2018-11-21T11:04:34.152Z,95111.6
2018-11-21T11:05:36.582Z,95110.9
2018-11-21T11:06:38.748Z,95113.8
2018-11-21T11:07:41.188Z,95112.7
2018-11-21T11:08:43.345Z,95116.8
2018-11-21T11:09:45.781Z,95113.5
2018-11-21T11:10:48.212Z,95117.2
2018-11-21T11:11:50.635Z,95117.8
2018-11-21T11:12:53.067Z,95118.2
2018-11-21T11:13:55.496Z,95126
2018-11-21T11:14:57.936Z,95125.2
2018-11-21T11:16:00.371Z,95127.5
2018-11-21T11:17:02.792Z,95121
2018-11-21T11:18:05.233Z,95123.7
2018-11-21T11:19:07.669Z,95125.7
2018-11-21T11:20:10.254Z,95124
2018-11-21T11:21:12.925Z,95123.1
2018-11-21T11:22:15.346Z,95123.4
2018-11-21T11:23:17.788Z,95126
2018-11-21T11:24:20.225Z,95130.9
2018-11-21T11:25:22.384Z,95137.1
2018-11-21T11:26:24.551Z,95138.4
2018-11-21T11:27:26.724Z,95137.1
2018-11-21T11:28:28.617Z,95138.2
2018-11-21T11:29:30.782Z,95134.3
2018-11-21T11:30:32.922Z,95134.5
2018-11-21T11:31:34.800Z,95134.8
2018-11-21T11:32:36.986Z,95132.2
2018-11-21T11:33:39.163Z,95136.1
2018-11-21T11:34:41.317Z,95133.2
2018-11-21T11:35:43.478Z,95133.5
2018-11-21T11:36:45.908Z,95135.6
2018-11-21T11:37:48.337Z,95135.5
2018-11-21T11:38:50.496Z,95132.2
2018-11-21T11:39:52.100Z,95129.1
2018-11-21T11:40:53.690Z,95127.3
2018-11-21T11:41:56.111Z,95127.2
2018-11-21T11:42:58.542Z,95127.6
2018-11-21T11:44:00.998Z,95127.8
2018-11-21T11:45:02.314Z,95122.9
2018-11-21T11:46:04.743Z,95122.7
2018-11-21T11:47:07.190Z,95121.9
2018-11-21T11:48:09.615Z,95121.2
2018-11-21T11:49:11.476Z,95122.5
2018-11-21T11:50:13.896Z,95119.1
2018-11-21T11:51:15.784Z,95127.6
2018-11-21T11:52:17.404Z,95128.3
2018-11-21T11:53:19.844Z,95129.1
2018-11-21T11:54:22.273Z,95129.2
2018-11-21T11:55:24.693Z,95126.4
2018-11-21T11:56:26.598Z,95130.2
2018-11-21T11:57:28.766Z,95130.4
2018-11-21T11:58:30.908Z,95130.2
2018-11-21T11:59:33.028Z,95126.4
2018-11-21T12:00:35.465Z,95125
2018-11-21T12:01:37.890Z,95127.3
2018-11-21T12:02:40.327Z,95124
2018-11-21T12:03:42.752Z,95124
2018-11-21T12:04:44.101Z,95131.6
2018-11-21T12:05:46.253Z,95130
2018-11-21T12:06:48.118Z,95130.6
2018-11-21T12:07:50.276Z,95127.3
2018-11-21T12:08:52.457Z,95124.2
2018-11-21T12:09:54.038Z,95123.7
2018-11-21T12:10:55.929Z,95123.9
2018-11-21T12:11:59.122Z,95119.8
2018-11-21T12:13:00.858Z,95118.4
2018-11-21T12:14:03.034Z,95119.3
2018-11-21T12:15:04.924Z,95120.1
2018-11-21T12:16:07.356Z,95120.5
2018-11-21T12:17:08.970Z,95122.6
2018-11-21T12:18:10.847Z,95117.1
2018-11-21T12:19:13.278Z,95116.9
2018-11-21T12:20:15.436Z,95116.1
2018-11-21T12:21:17.597Z,95115.5
2018-11-21T12:22:20.032Z,95114.4
2018-11-21T12:23:22.466Z,95114.7
2018-11-21T12:24:24.624Z,95115.6
2018-11-21T12:25:26.773Z,95120.2
2018-11-21T12:26:28.947Z,95124.5
2018-11-21T12:27:31.388Z,95125.9
2018-11-21T12:28:33.261Z,95128
2018-11-21T12:29:35.153Z,95133
2018-11-21T12:30:37.288Z,95130.3
2018-11-21T12:31:39.709Z,95127.2
2018-11-21T12:32:41.579Z,95127.5
2018-11-21T12:33:43.746Z,95127.8
2018-11-21T12:34:46.179Z,95123.6
2018-11-21T12:35:48.338Z,95129
2018-11-21T12:36:50.489Z,95123.1
2018-11-21T12:37:52.387Z,95126
2018-11-21T12:38:54.530Z,95125.6
2018-11-21T12:39:56.960Z,95123.8
2018-11-21T12:40:59.395Z,95124.1
2018-11-21T12:42:01.299Z,95125.8
2018-11-21T12:43:03.731Z,95120.8
2018-11-21T12:44:06.156Z,95121.7
2018-11-21T12:45:08.316Z,95120.9
2018-11-21T12:46:10.452Z,95126